createdAt,value
2022-12-25T00:00:51.120Z,98613.72
2022-12-25T00:01:53.924Z,98612.91
2022-12-25T00:02:57.254Z,98613.00
2022-12-25T00:04:00.494Z,98614.03
2022-12-25T00:05:02.505Z,98614.22
2022-12-25T00:06:05.782Z,98616.97
2022-12-25T00:07:07.579Z,98615.53
2022-12-25T00:08:10.974Z,98614.03
2022-12-25T00:09:13.019Z,98616.78
2022-12-25T00:10:15.726Z,98614.47
2022-12-25T00:11:19.616Z,98610.63
2022-12-25T00:12:22.495Z,98612.00
2022-12-25T00:13:24.286Z,98616.88
2022-12-25T00:14:27.124Z,98630.34
2022-12-25T00:15:29.037Z,98621.38
2022-12-25T00:16:32.107Z,98621.78
2022-12-25T00:17:34.000Z,98630.00
2022-12-25T00:18:38.511Z,98628.69
2022-12-25T00:19:40.342Z,98627.25
2022-12-25T00:20:43.114Z,98628.53
2022-12-25T00:21:44.920Z,98627.31
2022-12-25T00:22:47.636Z,98636.31
2022-12-25T00:23:53.605Z,98623.94
2022-12-25T00:24:56.364Z,98628.75
2022-12-25T00:25:58.495Z,98625.59
2022-12-25T00:27:01.254Z,98625.03
2022-12-25T00:28:03.357Z,98628.78
2022-12-25T00:29:06.104Z,98634.19
2022-12-25T00:30:09.477Z,98633.69
2022-12-25T00:31:14.594Z,98638.25
2022-12-25T00:32:16.500Z,98643.50
2022-12-25T00:33:19.758Z,98655.56
2022-12-25T00:34:22.937Z,98655.38
2022-12-25T00:35:25.627Z,98652.91
2022-12-25T00:36:27.820Z,98666.63
2022-12-25T00:37:30.943Z,98661.38
2022-12-25T00:38:35.737Z,98667.38
2022-12-25T00:39:38.654Z,98672.53
2022-12-25T00:40:44.282Z,98670.03
2022-12-25T00:42:04.539Z,98673.53
2022-12-25T00:43:07.319Z,98671.09
2022-12-25T00:44:10.781Z,98669.38
2022-12-25T00:45:15.817Z,98670.13
2022-12-25T00:46:17.865Z,98675.13
2022-12-25T00:47:21.126Z,98674.03
2022-12-25T00:48:23.151Z,98677.28
2022-12-25T00:49:27.307Z,98668.47
2022-12-25T00:50:29.534Z,98668.28
2022-12-25T00:51:32.952Z,98671.53
2022-12-25T00:52:34.768Z,98674.94
2022-12-25T00:53:37.576Z,98677.53
2022-12-25T00:54:39.518Z,98680.88
2022-12-25T00:55:42.273Z,98672.22
2022-12-25T00:56:44.809Z,98674.72
2022-12-25T00:57:47.519Z,98681.53
2022-12-25T00:58:49.383Z,98702.16
2022-12-25T00:59:53.252Z,98702.25
2022-12-25T01:00:56.174Z,98700.50
2022-12-25T01:02:19.887Z,98699.59
2022-12-25T01:03:22.090Z,98706.50
2022-12-25T01:04:25.363Z,98707.25
2022-12-25T01:05:28.510Z,98702.00
2022-12-25T01:06:31.744Z,98710.47
2022-12-25T01:07:33.553Z,98710.34
2022-12-25T01:08:38.759Z,98702.50
2022-12-25T01:09:59.296Z,98705.16
2022-12-25T01:11:02.718Z,98697.53
2022-12-25T01:12:04.630Z,98710.47
2022-12-25T01:13:08.110Z,98713.84
2022-12-25T01:14:10.340Z,98712.16
2022-12-25T01:15:13.942Z,98711.16
2022-12-25T01:16:16.451Z,98716.16
2022-12-25T01:17:19.235Z,98725.47
2022-12-25T01:18:23.509Z,98716.66
2022-12-25T01:19:25.443Z,98723.31
2022-12-25T01:20:29.659Z,98717.06
2022-12-25T01:21:31.904Z,98720.31
2022-12-25T01:22:34.730Z,98724.41
2022-12-25T01:23:36.544Z,98735.41
2022-12-25T01:24:39.291Z,98733.41
2022-12-25T01:26:02.297Z,98723.66
2022-12-25T01:27:05.996Z,98725.13
2022-12-25T01:28:08.262Z,98731.78
2022-12-25T01:29:11.460Z,98733.28
2022-12-25T01:30:14.370Z,98731.38
2022-12-25T01:31:19.326Z,98734.59
2022-12-25T01:32:21.346Z,98738.78
2022-12-25T01:33:24.121Z,98737.84
2022-12-25T01:34:25.903Z,98727.41
2022-12-25T01:35:30.094Z,98719.66
2022-12-25T01:36:32.052Z,98731.69
2022-12-25T01:37:34.839Z,98726.53
2022-12-25T01:38:36.964Z,98732.44
2022-12-25T01:39:39.758Z,98737.59
2022-12-25T01:40:43.287Z,98738.41
2022-12-25T01:41:46.213Z,98740.91
2022-12-25T01:42:48.043Z,98745.16
2022-12-25T01:44:05.925Z,98741.75
2022-12-25T01:45:32.084Z,98739.09
2022-12-25T01:46:35.843Z,98736.56
2022-12-25T01:47:37.633Z,98738.31
2022-12-25T01:48:40.767Z,98741.56
2022-12-25T01:49:45.397Z,98737.06
2022-12-25T01:50:55.569Z,98729.22
2022-12-25T01:52:23.638Z,98741.22
2022-12-25T01:53:27.711Z,98730.06
2022-12-25T01:54:31.971Z,98736.88
2022-12-25T01:55:35.541Z,98737.81
2022-12-25T01:56:38.038Z,98752.38
2022-12-25T01:57:41.691Z,98754.13
2022-12-25T01:58:43.565Z,98756.72
2022-12-25T01:59:47.162Z,98752.38
2022-12-25T02:00:49.419Z,98756.63
2022-12-25T02:01:52.556Z,98761.63
2022-12-25T02:02:54.898Z,98760.66
2022-12-25T02:04:02.263Z,98754.47
2022-12-25T02:05:06.102Z,98766.38
2022-12-25T02:06:10.511Z,98765.38
2022-12-25T02:07:15.137Z,98763.50
2022-12-25T02:08:20.195Z,98761.78
2022-12-25T02:09:22.078Z,98761.69
2022-12-25T02:10:25.040Z,98767.59
2022-12-25T02:11:45.694Z,98765.78
2022-12-25T02:12:48.780Z,98768.34
2022-12-25T02:13:50.555Z,98767.44
2022-12-25T02:15:04.870Z,98766.50
2022-12-25T02:16:11.204Z,98768.16
2022-12-25T02:17:20.565Z,98766.34
2022-12-25T02:18:31.574Z,98759.31
2022-12-25T02:19:47.883Z,98772.25
2022-12-25T02:21:07.758Z,98767.81
2022-12-25T02:22:16.834Z,98765.88
2022-12-25T02:23:59.084Z,98758.78
2022-12-25T02:25:09.322Z,98761.28
2022-12-25T02:26:17.751Z,98761.13
2022-12-25T02:27:29.059Z,98757.59
2022-12-25T02:28:37.986Z,98755.84
2022-12-25T02:29:48.346Z,98761.94
2022-12-25T02:30:53.800Z,98751.78
2022-12-25T02:31:59.532Z,98750.09
2022-12-25T02:33:20.132Z,98760.44
2022-12-25T02:34:28.879Z,98761.63
2022-12-25T02:35:31.031Z,98768.63
2022-12-25T02:36:39.168Z,98761.81
2022-12-25T02:37:45.409Z,98764.38
2022-12-25T02:39:04.596Z,98769.50
2022-12-25T02:40:10.457Z,98766.91
2022-12-25T02:41:15.314Z,98765.16
2022-12-25T02:42:24.104Z,98762.47
2022-12-25T02:43:47.918Z,98760.63
2022-12-25T02:45:10.437Z,98757.41
2022-12-25T02:46:32.771Z,98746.41
2022-12-25T02:47:54.005Z,98746.66
2022-12-25T02:49:17.288Z,98750.16
2022-12-25T02:50:38.566Z,98751.16
2022-12-25T02:52:01.943Z,98751.00
2022-12-25T02:53:22.553Z,98753.59
2022-12-25T02:54:46.693Z,98755.34
2022-12-25T02:56:08.457Z,98755.34
2022-12-25T02:57:30.703Z,98758.00
2022-12-25T02:58:53.041Z,98758.84
2022-12-25T03:00:16.451Z,98753.69
2022-12-25T03:01:39.324Z,98759.47
2022-12-25T03:03:01.264Z,98755.25
2022-12-25T03:04:24.926Z,98762.06
2022-12-25T03:05:45.586Z,98765.56
2022-12-25T03:07:00.843Z,98763.00
2022-12-25T03:08:04.957Z,98761.22
2022-12-25T03:09:22.712Z,98760.41
2022-12-25T03:10:56.254Z,98764.00
2022-12-25T03:12:02.289Z,98759.09
2022-12-25T03:13:26.711Z,98760.19
2022-12-25T03:14:47.208Z,98765.38
2022-12-25T03:16:09.106Z,98756.06
2022-12-25T03:17:11.591Z,98758.88
2022-12-25T03:18:16.414Z,98751.97
2022-12-25T03:19:38.250Z,98756.31
2022-12-25T03:20:59.048Z,98754.72
2022-12-25T03:22:19.734Z,98754.91
2022-12-25T03:23:41.986Z,98765.41
2022-12-25T03:25:02.146Z,98760.50
2022-12-25T03:26:23.055Z,98764.00
2022-12-25T03:27:26.350Z,98765.25
2022-12-25T03:28:28.129Z,98776.69
2022-12-25T03:29:50.300Z,98774.25
2022-12-25T03:31:14.651Z,98776.34
2022-12-25T03:32:22.922Z,98785.25
2022-12-25T03:33:46.255Z,98784.50
2022-12-25T03:35:12.617Z,98780.34
2022-12-25T03:36:21.718Z,98784.00
2022-12-25T03:37:43.251Z,98780.59
2022-12-25T03:39:08.149Z,98782.50
2022-12-25T03:40:35.035Z,98781.84
2022-12-25T03:41:59.641Z,98781.09
2022-12-25T03:43:25.861Z,98782.94
2022-12-25T03:45:01.769Z,98790.59
2022-12-25T03:46:29.822Z,98781.09
2022-12-25T03:47:48.980Z,98781.91
2022-12-25T03:49:11.262Z,98780.09
2022-12-25T03:50:35.408Z,98786.84
2022-12-25T03:51:57.472Z,98780.75
2022-12-25T03:53:20.114Z,98784.84
2022-12-25T03:54:43.792Z,98783.75
2022-12-25T03:56:00.595Z,98782.84
2022-12-25T03:57:21.011Z,98788.78
2022-12-25T03:58:43.915Z,98795.66
2022-12-25T04:00:24.527Z,98794.00
2022-12-25T04:01:46.079Z,98790.50
2022-12-25T04:03:06.521Z,98788.78
2022-12-25T04:04:26.821Z,98793.94
2022-12-25T04:05:47.101Z,98793.94
2022-12-25T04:07:07.700Z,98796.53
2022-12-25T04:08:28.044Z,98796.44
2022-12-25T04:09:53.736Z,98797.25
2022-12-25T04:11:14.272Z,98802.31
2022-12-25T04:12:34.997Z,98807.44
2022-12-25T04:13:55.122Z,98800.50
2022-12-25T04:15:23.755Z,98806.56
2022-12-25T04:16:45.199Z,98805.69
2022-12-25T04:18:06.005Z,98813.47
2022-12-25T04:19:27.728Z,98812.59
2022-12-25T04:20:48.224Z,98818.50
2022-12-25T04:22:17.358Z,98820.97
2022-12-25T04:23:38.037Z,98820.94
2022-12-25T04:25:00.798Z,98821.66
2022-12-25T04:26:21.395Z,98831.84
2022-12-25T04:27:41.649Z,98828.25
2022-12-25T04:29:01.919Z,98828.91
2022-12-25T04:30:23.100Z,98827.91
2022-12-25T04:31:43.829Z,98825.22
2022-12-25T04:33:05.331Z,98824.13
2022-12-25T04:34:25.540Z,98827.50
2022-12-25T04:35:45.847Z,98829.88
2022-12-25T04:36:49.031Z,98826.22
2022-12-25T04:37:51.081Z,98833.81
2022-12-25T04:38:53.877Z,98828.41
2022-12-25T04:39:55.724Z,98827.38
2022-12-25T04:40:58.491Z,98824.53
2022-12-25T04:42:01.384Z,98834.63
2022-12-25T04:43:04.241Z,98829.25
2022-12-25T04:44:06.064Z,98826.50
2022-12-25T04:45:10.094Z,98825.44
2022-12-25T04:46:12.001Z,98827.81
2022-12-25T04:47:14.795Z,98833.75
2022-12-25T04:48:17.914Z,98828.41
2022-12-25T04:49:20.746Z,98835.16
2022-12-25T04:50:22.534Z,98828.97
2022-12-25T04:51:26.638Z,98833.97
2022-12-25T04:52:28.953Z,98836.47
2022-12-25T04:53:31.705Z,98837.97
2022-12-25T04:54:33.527Z,98842.19
2022-12-25T04:55:36.321Z,98840.38
2022-12-25T04:56:43.490Z,98838.63
2022-12-25T04:57:48.608Z,98837.69
2022-12-25T04:58:50.506Z,98840.38
2022-12-25T04:59:53.359Z,98836.09
2022-12-25T05:00:55.151Z,98839.88
2022-12-25T05:01:58.117Z,98838.31
2022-12-25T05:03:00.210Z,98843.66
2022-12-25T05:04:04.736Z,98830.81
2022-12-25T05:05:07.425Z,98824.91
2022-12-25T05:06:10.244Z,98830.16
2022-12-25T05:07:12.087Z,98825.91
2022-12-25T05:08:15.155Z,98827.66
2022-12-25T05:09:17.042Z,98825.06
2022-12-25T05:10:20.031Z,98825.16
2022-12-25T05:11:22.273Z,98833.75
2022-12-25T05:12:25.101Z,98831.16
2022-12-25T05:13:26.953Z,98830.34
2022-12-25T05:14:30.022Z,98837.16
2022-12-25T05:15:31.974Z,98831.16
2022-12-25T05:16:34.813Z,98837.16
2022-12-25T05:17:37.471Z,98840.59
2022-12-25T05:18:40.227Z,98841.50
2022-12-25T05:19:44.003Z,98844.09
2022-12-25T05:20:52.942Z,98841.50
2022-12-25T05:21:55.237Z,98844.16
2022-12-25T05:22:57.988Z,98849.44
2022-12-25T05:24:00.534Z,98845.19
2022-12-25T05:25:03.707Z,98845.19
2022-12-25T05:26:06.469Z,98841.88
2022-12-25T05:27:09.285Z,98840.16
2022-12-25T05:28:11.103Z,98842.75
2022-12-25T05:29:13.822Z,98842.84
2022-12-25T05:30:16.105Z,98843.78
2022-12-25T05:31:19.294Z,98842.94
2022-12-25T05:32:21.222Z,98849.09
2022-12-25T05:33:24.492Z,98851.78
2022-12-25T05:34:26.295Z,98852.72
2022-12-25T05:35:30.384Z,98849.53
2022-12-25T05:36:32.141Z,98849.53
2022-12-25T05:37:34.927Z,98855.66
2022-12-25T05:38:37.317Z,98856.53
2022-12-25T05:39:40.373Z,98853.22
2022-12-25T05:40:42.147Z,98852.47
2022-12-25T05:41:44.929Z,98847.31
2022-12-25T05:42:46.765Z,98860.28
2022-12-25T05:43:49.551Z,98866.38
2022-12-25T05:44:51.278Z,98865.72
2022-12-25T05:45:54.159Z,98869.22
2022-12-25T05:46:55.985Z,98864.97
2022-12-25T05:47:58.808Z,98862.47
2022-12-25T05:49:00.659Z,98863.47
2022-12-25T05:50:03.504Z,98868.72
2022-12-25T05:51:08.132Z,98872.25
2022-12-25T05:52:11.091Z,98878.31
2022-12-25T05:53:14.481Z,98884.38
2022-12-25T05:54:17.877Z,98886.97
2022-12-25T05:55:19.704Z,98886.13
2022-12-25T05:56:22.477Z,98883.56
2022-12-25T05:57:24.359Z,98882.81
2022-12-25T05:58:27.179Z,98881.16
2022-12-25T05:59:29.223Z,98879.47
2022-12-25T06:00:32.169Z,98880.38
2022-12-25T06:01:34.015Z,98883.88
2022-12-25T06:02:37.416Z,98881.41
2022-12-25T06:03:39.486Z,98879.66
2022-12-25T06:04:42.510Z,98885.78
2022-12-25T06:05:44.248Z,98873.91
2022-12-25T06:06:48.356Z,98877.31
2022-12-25T06:07:50.151Z,98879.22
2022-12-25T06:08:54.649Z,98871.56
2022-12-25T06:09:56.463Z,98877.72
2022-12-25T06:10:59.223Z,98874.38
2022-12-25T06:12:00.957Z,98879.72
2022-12-25T06:13:03.744Z,98880.94
2022-12-25T06:14:05.873Z,98886.34
2022-12-25T06:15:10.008Z,98882.34
2022-12-25T06:16:12.611Z,98892.09
2022-12-25T06:17:15.480Z,98896.00
2022-12-25T06:18:17.278Z,98899.78
2022-12-25T06:19:20.062Z,98906.09
2022-12-25T06:20:22.100Z,98908.06
2022-12-25T06:21:25.059Z,98904.06
2022-12-25T06:22:30.120Z,98900.78
2022-12-25T06:23:33.199Z,98912.03
2022-12-25T06:24:35.120Z,98917.28
2022-12-25T06:25:40.036Z,98906.97
2022-12-25T06:26:42.464Z,98913.03
2022-12-25T06:27:45.247Z,98919.03
2022-12-25T06:28:47.324Z,98920.78
2022-12-25T06:29:50.508Z,98920.69
2022-12-25T06:30:52.347Z,98929.25
2022-12-25T06:31:57.410Z,98928.25
2022-12-25T06:33:00.113Z,98923.88
2022-12-25T06:34:02.902Z,98932.34
2022-12-25T06:35:05.479Z,98925.41
2022-12-25T06:36:08.973Z,98925.31
2022-12-25T06:37:10.784Z,98922.63
2022-12-25T06:38:14.842Z,98926.97
2022-12-25T06:39:17.201Z,98934.72
2022-12-25T06:40:20.248Z,98936.53
2022-12-25T06:41:23.451Z,98940.94
2022-12-25T06:42:26.252Z,98943.59
2022-12-25T06:43:28.019Z,98945.34
2022-12-25T06:44:30.752Z,98952.25
2022-12-25T06:45:35.048Z,98949.69
2022-12-25T06:46:38.043Z,98954.84
2022-12-25T06:47:39.891Z,98956.50
2022-12-25T06:48:47.846Z,98948.75
2022-12-25T06:49:49.650Z,98948.84
2022-12-25T06:50:52.367Z,98962.66
2022-12-25T06:51:54.273Z,98952.47
2022-12-25T06:52:57.441Z,98950.66
2022-12-25T06:54:03.825Z,98950.66
2022-12-25T06:55:07.646Z,98952.34
2022-12-25T06:56:15.183Z,98953.16
2022-12-25T06:57:18.869Z,98965.28
2022-12-25T06:58:20.720Z,98962.72
2022-12-25T06:59:23.492Z,98970.44
2022-12-25T07:00:25.296Z,98973.81
2022-12-25T07:01:30.667Z,98974.56
2022-12-25T07:02:33.445Z,98980.63
2022-12-25T07:03:36.268Z,98974.69
2022-12-25T07:04:40.247Z,98973.94
2022-12-25T07:05:44.849Z,98981.84
2022-12-25T07:06:46.748Z,98979.50
2022-12-25T07:07:49.849Z,98982.31
2022-12-25T07:08:51.614Z,98985.00
2022-12-25T07:09:55.755Z,98993.81
2022-12-25T07:10:57.559Z,98988.81
2022-12-25T07:12:04.375Z,98992.44
2022-12-25T07:13:06.248Z,98992.66
2022-12-25T07:14:09.914Z,98995.38
2022-12-25T07:15:11.700Z,98994.78
2022-12-25T07:16:14.977Z,98995.75
2022-12-25T07:17:17.726Z,99001.94
2022-12-25T07:18:20.591Z,99010.72
2022-12-25T07:19:22.637Z,99011.03
2022-12-25T07:20:26.055Z,99022.38
2022-12-25T07:21:27.811Z,99023.44
2022-12-25T07:22:30.991Z,99027.91
2022-12-25T07:23:32.973Z,99027.19
2022-12-25T07:24:35.768Z,99027.34
2022-12-25T07:25:38.963Z,99042.09
2022-12-25T07:26:41.800Z,99036.13
2022-12-25T07:27:43.592Z,99036.19
2022-12-25T07:28:46.387Z,99033.63
2022-12-25T07:29:48.193Z,99032.78
2022-12-25T07:30:50.984Z,99026.84
2022-12-25T07:31:53.920Z,99032.78
2022-12-25T07:32:56.681Z,99038.78
2022-12-25T07:33:59.572Z,99043.00
2022-12-25T07:35:01.346Z,99043.84
2022-12-25T07:36:05.422Z,99038.63
2022-12-25T07:37:07.319Z,99040.28
2022-12-25T07:38:10.173Z,99045.31
2022-12-25T07:39:12.583Z,99036.47
2022-12-25T07:40:15.619Z,99044.81
2022-12-25T07:41:18.770Z,99036.13
2022-12-25T07:42:25.144Z,99037.63
2022-12-25T07:43:29.499Z,99040.16
2022-12-25T07:44:32.260Z,99038.34
2022-12-25T07:45:34.153Z,99045.94
2022-12-25T07:46:36.891Z,99051.00
2022-12-25T07:47:38.640Z,99051.84
2022-12-25T07:48:41.461Z,99047.53
2022-12-25T07:49:43.280Z,99045.72
2022-12-25T07:50:46.040Z,99040.56
2022-12-25T07:51:47.921Z,99041.31
2022-12-25T07:52:50.677Z,99033.50
2022-12-25T07:53:55.196Z,99032.53
2022-12-25T07:54:57.011Z,99037.75
2022-12-25T07:56:01.216Z,99036.03
2022-12-25T07:57:04.412Z,99036.03
2022-12-25T07:58:07.357Z,99034.22
2022-12-25T07:59:09.228Z,99037.63
2022-12-25T08:00:13.236Z,99022.97
2022-12-25T08:01:34.921Z,99022.97
2022-12-25T08:02:37.445Z,99032.34
2022-12-25T08:03:40.723Z,99035.56
2022-12-25T08:04:42.791Z,99027.72
2022-12-25T08:05:45.716Z,99034.41
2022-12-25T08:06:47.496Z,99034.09
2022-12-25T08:07:57.323Z,99030.41
2022-12-25T08:09:04.458Z,99030.91
2022-12-25T08:10:08.239Z,99035.78
2022-12-25T08:11:10.439Z,99038.13
2022-12-25T08:12:14.916Z,99030.25
2022-12-25T08:13:16.757Z,99035.19
2022-12-25T08:14:19.519Z,99035.88
2022-12-25T08:15:21.885Z,99033.06
2022-12-25T08:16:24.768Z,99038.09
2022-12-25T08:17:26.618Z,99033.53
2022-12-25T08:18:30.639Z,99033.31
2022-12-25T08:19:32.653Z,99028.75
2022-12-25T08:20:35.638Z,99041.25
2022-12-25T08:21:39.291Z,99034.94
2022-12-25T08:22:41.102Z,99032.09
2022-12-25T08:23:45.914Z,99038.69
2022-12-25T08:24:47.740Z,99039.28
2022-12-25T08:25:50.552Z,99041.63
2022-12-25T08:26:53.364Z,99046.53
2022-12-25T08:27:56.700Z,99033.47
2022-12-25T08:28:59.456Z,99041.91
2022-12-25T08:30:01.293Z,99041.72
2022-12-25T08:31:11.409Z,99034.66
2022-12-25T08:32:13.184Z,99036.22
2022-12-25T08:33:15.936Z,99036.00
2022-12-25T08:34:19.291Z,99034.09
2022-12-25T08:35:22.113Z,99025.28
2022-12-25T08:36:24.511Z,99031.97
2022-12-25T08:37:27.299Z,99023.19
2022-12-25T08:38:29.088Z,99025.53
2022-12-25T08:39:31.837Z,99025.38
2022-12-25T08:40:33.736Z,99026.88
2022-12-25T08:41:37.099Z,99021.53
2022-12-25T08:42:38.915Z,99029.16
2022-12-25T08:43:44.245Z,99017.69
2022-12-25T08:44:46.017Z,99022.63
2022-12-25T08:45:49.109Z,99018.13
2022-12-25T08:46:51.064Z,99014.47
2022-12-25T08:47:54.975Z,99012.53
2022-12-25T08:48:57.075Z,99023.53
2022-12-25T08:49:59.864Z,99014.78
2022-12-25T08:51:02.299Z,99018.03
2022-12-25T08:52:05.271Z,99017.88
2022-12-25T08:53:07.077Z,99027.19
2022-12-25T08:54:09.992Z,99032.22
2022-12-25T08:55:12.043Z,99036.38
2022-12-25T08:56:15.740Z,99044.81
2022-12-25T08:57:17.607Z,99047.22
2022-12-25T08:58:20.348Z,99053.97
2022-12-25T08:59:24.915Z,99052.88
2022-12-25T09:00:26.699Z,99046.63
2022-12-25T09:01:29.573Z,99053.13
2022-12-25T09:02:32.987Z,99056.97
2022-12-25T09:03:35.006Z,99054.84
2022-12-25T09:04:37.780Z,99061.28
2022-12-25T09:05:39.726Z,99057.31
2022-12-25T09:06:42.571Z,99053.47
2022-12-25T09:07:44.499Z,99063.19
2022-12-25T09:08:49.596Z,99055.81
2022-12-25T09:09:52.324Z,99056.91
2022-12-25T09:10:55.219Z,99058.91
2022-12-25T09:11:57.102Z,99060.94
2022-12-25T09:12:59.963Z,99057.91
2022-12-25T09:14:02.840Z,99058.38
2022-12-25T09:15:07.195Z,99053.84
2022-12-25T09:16:11.877Z,99061.44
2022-12-25T09:17:13.780Z,99063.94
2022-12-25T09:18:16.541Z,99062.19
2022-12-25T09:19:18.330Z,99063.84
2022-12-25T09:20:21.255Z,99056.91
2022-12-25T09:21:23.120Z,99060.22
2022-12-25T09:22:25.882Z,99060.16
2022-12-25T09:23:28.632Z,99062.53
2022-12-25T09:24:31.478Z,99062.38
2022-12-25T09:25:33.381Z,99052.66
2022-12-25T09:26:36.116Z,99062.66
2022-12-25T09:27:37.942Z,99061.44
2022-12-25T09:28:46.580Z,99059.38
2022-12-25T09:29:53.278Z,99065.13
2022-12-25T09:30:56.556Z,99064.09
2022-12-25T09:31:59.323Z,99064.19
2022-12-25T09:33:01.091Z,99067.63
2022-12-25T09:34:04.151Z,99073.56
2022-12-25T09:35:06.565Z,99063.91
2022-12-25T09:36:10.262Z,99072.34
2022-12-25T09:37:12.035Z,99075.56
2022-12-25T09:38:14.853Z,99077.16
2022-12-25T09:39:17.604Z,99079.63
2022-12-25T09:40:23.121Z,99077.69
2022-12-25T09:41:30.471Z,99073.16
2022-12-25T09:42:34.391Z,99071.00
2022-12-25T09:43:41.028Z,99071.53
2022-12-25T09:44:46.218Z,99071.03
2022-12-25T09:45:48.098Z,99074.94
2022-12-25T09:47:14.738Z,99077.31
2022-12-25T09:48:16.622Z,99083.25
2022-12-25T09:49:22.857Z,99084.09
2022-12-25T09:50:32.422Z,99085.09
2022-12-25T09:51:39.037Z,99079.38
2022-12-25T09:52:44.200Z,99087.44
2022-12-25T09:53:52.816Z,99088.66
2022-12-25T09:54:57.802Z,99088.13
2022-12-25T09:56:05.961Z,99085.63
2022-12-25T09:57:11.152Z,99088.34
2022-12-25T09:58:15.737Z,99092.03
2022-12-25T09:59:24.143Z,99094.63
2022-12-25T10:00:30.737Z,99091.09
2022-12-25T10:01:37.630Z,99090.28
2022-12-25T10:03:11.426Z,99083.16
2022-12-25T10:04:29.411Z,99079.50
2022-12-25T10:05:48.605Z,99087.00
2022-12-25T10:07:02.691Z,99079.88
2022-12-25T10:08:12.807Z,99077.16
2022-12-25T10:09:36.267Z,99078.00
2022-12-25T10:10:47.711Z,99081.41
2022-12-25T10:12:06.182Z,99073.56
2022-12-25T10:13:19.376Z,99075.94
2022-12-25T10:14:25.961Z,99075.66
2022-12-25T10:15:37.831Z,99072.88
2022-12-25T10:16:48.984Z,99075.25
2022-12-25T10:18:02.675Z,99071.66
2022-12-25T10:19:14.585Z,99069.13
2022-12-25T10:20:23.742Z,99076.00
2022-12-25T10:21:27.969Z,99071.94
2022-12-25T10:22:34.719Z,99066.84
2022-12-25T10:23:39.354Z,99067.69
2022-12-25T10:24:46.739Z,99059.88
2022-12-25T10:25:49.508Z,99056.53
2022-12-25T10:26:51.957Z,99055.81
2022-12-25T10:27:57.431Z,99056.53
2022-12-25T10:29:04.242Z,99058.19
2022-12-25T10:30:15.589Z,99059.88
2022-12-25T10:31:22.620Z,99051.16
2022-12-25T10:32:24.558Z,99055.22
2022-12-25T10:33:28.605Z,99057.63
2022-12-25T10:34:32.614Z,99054.06
2022-12-25T10:35:35.400Z,99055.66
2022-12-25T10:36:37.229Z,99056.38
2022-12-25T10:37:40.223Z,99057.03
2022-12-25T10:38:42.007Z,99054.25
2022-12-25T10:39:46.966Z,99060.97
2022-12-25T10:41:00.195Z,99058.19
2022-12-25T10:42:27.663Z,99051.84
2022-12-25T10:43:32.876Z,99051.78
2022-12-25T10:44:35.754Z,99048.94
2022-12-25T10:45:45.185Z,99048.75
2022-12-25T10:46:49.851Z,99040.84
2022-12-25T10:48:07.155Z,99042.31
2022-12-25T10:49:14.826Z,99042.97
2022-12-25T10:50:24.196Z,99031.63
2022-12-25T10:51:31.967Z,99032.34
2022-12-25T10:52:33.819Z,99026.22
2022-12-25T10:53:39.798Z,99026.00
2022-12-25T10:54:41.613Z,99033.63
2022-12-25T10:55:44.380Z,99029.25
2022-12-25T10:56:54.314Z,99034.22
2022-12-25T10:57:57.855Z,99034.97
2022-12-25T10:59:07.069Z,99037.47
2022-12-25T11:00:20.583Z,99035.56
2022-12-25T11:01:28.867Z,99037.97
2022-12-25T11:02:34.405Z,99029.25
2022-12-25T11:03:40.135Z,99024.78
2022-12-25T11:04:42.528Z,99026.34
2022-12-25T11:05:51.236Z,99026.97
2022-12-25T11:06:58.123Z,99024.25
2022-12-25T11:08:02.326Z,99026.66
2022-12-25T11:09:04.155Z,99028.94
2022-12-25T11:10:21.747Z,99024.47
2022-12-25T11:11:24.065Z,99023.53
2022-12-25T11:12:30.719Z,99022.56
2022-12-25T11:13:34.877Z,99021.44
2022-12-25T11:14:38.376Z,99014.38
2022-12-25T11:15:42.286Z,99015.81
2022-12-25T11:16:45.861Z,99012.28
2022-12-25T11:17:48.855Z,99016.53
2022-12-25T11:18:53.539Z,99008.50
2022-12-25T11:19:57.105Z,99012.69
2022-12-25T11:21:03.120Z,99004.06
2022-12-25T11:22:18.074Z,99010.91
2022-12-25T11:23:21.878Z,99004.78
2022-12-25T11:24:28.701Z,99005.59
2022-12-25T11:25:30.489Z,99010.81
2022-12-25T11:26:37.491Z,99003.81
2022-12-25T11:27:39.308Z,99006.34
2022-12-25T11:28:43.226Z,99006.22
2022-12-25T11:29:48.307Z,99010.38
2022-12-25T11:30:53.395Z,99004.25
2022-12-25T11:31:58.151Z,99008.50
2022-12-25T11:33:03.357Z,99004.97
2022-12-25T11:34:07.854Z,99002.25
2022-12-25T11:35:12.965Z,99014.31
2022-12-25T11:36:21.602Z,99011.63
2022-12-25T11:37:29.050Z,99007.25
2022-12-25T11:38:32.205Z,99020.03
2022-12-25T11:39:36.458Z,99012.97
2022-12-25T11:40:43.897Z,99022.31
2022-12-25T11:41:46.538Z,99016.38
2022-12-25T11:42:51.385Z,99012.22
2022-12-25T11:43:56.846Z,99015.06
2022-12-25T11:45:03.673Z,99011.69
2022-12-25T11:46:12.118Z,99013.38
2022-12-25T11:47:18.863Z,99012.44
2022-12-25T11:48:25.235Z,99015.75
2022-12-25T11:49:28.626Z,99009.59
2022-12-25T11:50:32.796Z,99016.50
2022-12-25T11:51:40.179Z,99018.03
2022-12-25T11:52:45.474Z,99017.94
2022-12-25T11:53:51.705Z,99016.91
2022-12-25T11:54:57.601Z,99014.13
2022-12-25T11:56:02.858Z,99005.25
2022-12-25T11:57:06.312Z,99018.97
2022-12-25T11:58:15.273Z,99017.13
2022-12-25T11:59:21.820Z,99013.44
2022-12-25T12:00:24.816Z,99010.84
2022-12-25T12:01:29.809Z,99009.81
2022-12-25T12:02:36.573Z,99003.53
2022-12-25T12:03:41.004Z,99006.56
2022-12-25T12:04:45.321Z,98997.34
2022-12-25T12:05:52.403Z,98996.69
2022-12-25T12:06:57.905Z,99001.25
2022-12-25T12:08:01.916Z,98999.63
2022-12-25T12:09:23.821Z,98993.72
2022-12-25T12:10:36.647Z,98995.78
2022-12-25T12:11:41.507Z,98997.22
2022-12-25T12:12:52.475Z,98992.25
2022-12-25T12:14:03.375Z,98995.13
2022-12-25T12:15:15.004Z,98991.81
2022-12-25T12:16:17.869Z,98995.97
2022-12-25T12:17:19.884Z,99004.28
2022-12-25T12:18:24.166Z,99002.97
2022-12-25T12:19:28.007Z,99004.16
2022-12-25T12:20:33.295Z,99000.38
2022-12-25T12:21:35.096Z,99007.03
2022-12-25T12:22:39.314Z,99000.75
2022-12-25T12:23:49.147Z,98993.78
2022-12-25T12:24:56.174Z,98996.94
2022-12-25T12:25:58.188Z,98990.78
2022-12-25T12:27:02.601Z,99001.13
2022-12-25T12:28:05.818Z,98993.16
2022-12-25T12:29:09.772Z,98985.34
2022-12-25T12:30:23.812Z,98990.78
2022-12-25T12:31:37.963Z,98993.88
2022-12-25T12:32:41.605Z,98988.16
2022-12-25T12:33:51.727Z,98986.66
2022-12-25T12:34:55.085Z,98993.72
2022-12-25T12:35:58.532Z,98989.38
2022-12-25T12:37:02.491Z,98981.44
2022-12-25T12:38:08.804Z,98983.09
2022-12-25T12:39:21.697Z,98986.53
2022-12-25T12:40:28.495Z,98984.88
2022-12-25T12:41:43.036Z,98984.88
2022-12-25T12:42:50.726Z,98989.72
2022-12-25T12:43:55.947Z,98984.38
2022-12-25T12:45:07.645Z,98978.00
2022-12-25T12:46:17.169Z,98986.53
2022-12-25T12:47:30.293Z,98987.13
2022-12-25T12:48:40.548Z,98991.50
2022-12-25T12:49:42.440Z,98994.94
2022-12-25T12:50:45.272Z,98987.25
2022-12-25T12:51:47.930Z,98980.34
2022-12-25T12:52:50.691Z,98987.34
2022-12-25T12:54:06.757Z,98980.34
2022-12-25T12:55:13.412Z,98980.47
2022-12-25T12:56:18.905Z,98982.97
2022-12-25T12:57:25.868Z,98977.03
2022-12-25T12:58:33.080Z,98983.09
2022-12-25T12:59:38.982Z,98980.59
2022-12-25T13:00:47.931Z,98990.31
2022-12-25T13:01:59.698Z,98989.00
2022-12-25T13:03:13.760Z,98987.84
2022-12-25T13:04:32.341Z,98991.28